Time;durP1;ratioP1;P1;durP2;ratioP2;P2;SDS_P1;SDS_P2;PMS_P1;PMS_P2;Temp;Humidity;BMP_temperature;BMP_pressure;BME280_temperature;BME280_humidity;BME280_pressure;Samples;Min_cycle;Max_cycle;Signal;HPM_P1;HPM_P2
2022/03/25 00:01:55;;;;;;;;;;;;;;;21.53;39.41;102804.13;7277262;19;152226;-68
2022/03/25 00:04:22;;;;;;;;;;;;;;;21.54;39.77;102805.81;7273847;19;154486;-64
2022/03/25 00:06:48;;;;;;;;;;;;;;;21.52;39.46;102808.91;7278659;19;151983;-63
2022/03/25 00:09:15;;;;;;;;;;;;;;;21.50;39.30;102801.84;7279413;19;152904;-65
2022/03/25 00:11:42;;;;;;;;;;;;;;;21.47;39.41;102806.06;7276858;19;154205;-64
2022/03/25 00:14:11;;;;;;;;;;;;;;;21.49;39.75;102803.81;7279045;19;152392;-65
2022/03/25 00:16:37;;;;;;;;;;;;;;;21.46;39.66;102804.34;7282979;19;153373;-63
2022/03/25 00:19:04;;;;;;;;;;;;;;;21.45;39.61;102801.78;7277226;19;152161;-68
2022/03/25 00:21:31;;;;;;;;;;;;;;;21.45;40.05;102801.78;7276691;19;152787;-62
2022/03/25 00:23:58;;;;;;;;;;;;;;;21.46;40.14;102804.34;7272397;19;152453;-64
2022/03/25 00:26:24;;;;;;;;;;;;;;;21.46;39.94;102804.34;7276009;19;151786;-65
2022/03/25 00:28:51;;;;;;;;;;;;;;;21.47;40.14;102799.56;7278672;19;153160;-66
2022/03/25 00:31:18;;;;;;;;;;;;;;;21.45;39.94;102808.28;7275847;19;152032;-66
2022/03/25 00:33:49;;;;;;;;;;;;;;;21.45;40.21;102816.72;7278349;19;151965;-64
2022/03/25 00:36:21;;;;;;;;;;;;;;;21.46;40.19;102809.13;7281782;19;154859;-65
2022/03/25 00:38:48;;;;;;;;;;;;;;;21.49;40.39;102805.75;7274827;19;151914;-67
2022/03/25 00:41:16;;;;;;;;;;;;;;;21.49;40.21;102806.63;7275395;19;152133;-68
2022/03/25 00:43:44;;;;;;;;;;;;;;;21.48;40.06;102810.56;7274104;19;152460;-66
2022/03/25 00:46:12;;;;;;;;;;;;;;;21.49;40.70;102806.63;7277403;19;151822;-64
2022/03/25 00:48:39;;;;;;;;;;;;;;;21.50;40.67;102811.13;7284138;19;154432;-67
2022/03/25 00:51:06;;;;;;;;;;;;;;;21.50;40.65;102815.91;7282946;19;154319;-68
2022/03/25 00:53:33;;;;;;;;;;;;;;;21.49;40.73;102815.06;7281831;19;151997;-67
2022/03/25 00:56:01;;;;;;;;;;;;;;;21.50;40.49;102816.75;7281701;19;153363;-66
2022/03/25 00:58:28;;;;;;;;;;;;;;;21.51;40.93;102818.44;7290874;19;154316;-65
2022/03/25 01:00:55;;;;;;;;;;;;;;;21.49;40.69;102815.06;7283105;19;153404;-65
2022/03/25 01:03:22;;;;;;;;;;;;;;;21.49;40.53;102806.63;7280151;19;154643;-67
2022/03/25 01:05:49;;;;;;;;;;;;;;;21.49;40.65;102811.38;7283555;19;152203;-66
2022/03/25 01:08:16;;;;;;;;;;;;;;;21.50;41.14;102813.94;7281550;19;152555;-63
2022/03/25 01:10:43;;;;;;;;;;;;;;;21.50;40.91;102822.38;7281274;19;153623;-66
2022/03/25 01:13:10;;;;;;;;;;;;;;;21.49;40.91;102815.06;7281740;19;151849;-66
2022/03/25 01:15:38;;;;;;;;;;;;;;;21.49;41.17;102815.06;7280023;19;152480;-65
2022/03/25 01:18:05;;;;;;;;;;;;;;;21.51;41.42;102811.97;7279873;19;154539;-63
2022/03/25 01:20:32;;;;;;;;;;;;;;;21.49;40.99;102809.44;7290312;19;152063;-65
2022/03/25 01:22:59;;;;;;;;;;;;;;;21.49;41.39;102805.75;7282650;19;154270;-64
2022/03/25 01:25:26;;;;;;;;;;;;;;;21.49;40.99;102805.75;7278238;19;152499;-64
2022/03/25 01:27:52;;;;;;;;;;;;;;;21.47;41.40;102800.44;7283666;19;154121;-64
2022/03/25 01:30:19;;;;;;;;;;;;;;;21.48;41.29;102801.28;7281053;19;152451;-68
2022/03/25 01:32:46;;;;;;;;;;;;;;;21.48;41.48;102801.28;7283369;19;152077;-63
2022/03/25 01:35:13;;;;;;;;;;;;;;;21.47;41.46;102800.44;7281163;19;152972;-67
2022/03/25 01:37:40;;;;;;;;;;;;;;;21.47;42.00;102802.38;7280747;19;155711;-65
2022/03/25 01:40:09;;;;;;;;;;;;;;;21.47;41.97;102799.56;7282508;19;151872;-67
2022/03/25 01:42:39;;;;;;;;;;;;;;;21.47;41.83;102803.25;7288131;19;153225;-68
2022/03/25 01:45:06;;;;;;;;;;;;;;;21.47;41.96;102793.94;7281680;19;151991;-66
2022/03/25 01:47:33;;;;;;;;;;;;;;;21.46;42.62;102800.69;7280288;19;153032;-65
2022/03/25 01:50:00;;;;;;;;;;;;;;;21.46;42.49;102804.34;7280108;19;153280;-68
2022/03/25 01:52:28;;;;;;;;;;;;;;;21.46;42.62;102809.97;7282529;19;151840;-68
2022/03/25 01:55:12;;;;;;;;;;;;;;;21.45;42.40;102797.03;7283339;19;155173;-68
2022/03/25 01:57:38;;;;;;;;;;;;;;;21.45;42.37;102802.66;7279191;19;153386;-67
2022/03/25 02:00:06;;;;;;;;;;;;;;;21.44;42.49;102794.50;7279457;19;152943;-66
2022/03/25 02:02:32;;;;;;;;;;;;;;;21.42;42.25;102800.38;7280665;19;154218;-71
2022/03/25 02:05:00;;;;;;;;;;;;;;;21.43;42.01;102793.66;7284581;19;154117;-66
2022/03/25 02:07:26;;;;;;;;;;;;;;;21.42;42.31;102802.34;7279802;19;154023;-67
2022/03/25 02:09:53;;;;;;;;;;;;;;;21.41;42.17;102795.03;7280477;19;153329;-66
2022/03/25 02:12:20;;;;;;;;;;;;;;;21.43;41.98;102795.63;7278232;19;152496;-62
2022/03/25 02:14:47;;;;;;;;;;;;;;;21.41;42.25;102807.13;7281359;19;153024;-65
2022/03/25 02:17:15;;;;;;;;;;;;;;;21.40;42.30;102808.22;7278947;19;156056;-69
2022/03/25 02:19:42;;;;;;;;;;;;;;;21.40;42.00;102799.78;7281685;19;151959;-64
2022/03/25 02:22:09;;;;;;;;;;;;;;;21.40;42.42;102798.94;7281033;19;152795;-67
2022/03/25 02:24:36;;;;;;;;;;;;;;;21.37;42.13;102805.97;7277035;19;153334;-66
2022/03/25 02:27:03;;;;;;;;;;;;;;;21.38;42.50;102802.03;7289347;19;151901;-67
2022/03/25 02:29:33;;;;;;;;;;;;;;;21.35;42.38;102801.75;7280055;19;154079;-67
2022/03/25 02:32:00;;;;;;;;;;;;;;;21.37;42.75;102794.72;7281816;19;152038;-62
2022/03/25 02:34:27;;;;;;;;;;;;;;;21.34;42.18;102806.50;7280893;19;152051;-67
2022/03/25 02:36:54;;;;;;;;;;;;;;;21.32;42.46;102796.63;7278703;19;153690;-65
2022/03/25 02:39:22;;;;;;;;;;;;;;;21.27;42.68;102800.25;7280268;19;152366;-66
2022/03/25 02:41:49;;;;;;;;;;;;;;;21.29;42.48;102798.03;7281538;19;154236;-68
2022/03/25 02:44:16;;;;;;;;;;;;;;;21.29;42.51;102792.41;7277795;19;155016;-66
2022/03/25 02:46:42;;;;;;;;;;;;;;;21.30;42.17;102806.19;7286394;19;152277;-61
2022/03/25 02:49:09;;;;;;;;;;;;;;;21.29;42.13;102793.25;7277408;19;155410;-67
2022/03/25 02:51:36;;;;;;;;;;;;;;;21.25;42.32;102788.44;7277570;19;153154;-69
2022/03/25 02:54:03;;;;;;;;;;;;;;;21.26;42.64;102799.41;7281579;19;153227;-65
2022/03/25 02:56:30;;;;;;;;;;;;;;;21.23;42.76;102794.31;7278462;19;155370;-65
2022/03/25 02:58:57;;;;;;;;;;;;;;;21.23;42.31;102790.66;7281478;19;151619;-69
2022/03/25 03:01:24;;;;;;;;;;;;;;;21.25;42.34;102788.44;7278221;19;152068;-65
2022/03/25 03:03:51;;;;;;;;;;;;;;;21.20;42.45;102788.41;7280606;19;153633;-66
2022/03/25 03:06:18;;;;;;;;;;;;;;;21.21;42.30;102790.09;7277464;19;151969;-66
2022/03/25 03:08:45;;;;;;;;;;;;;;;21.17;42.31;102791.72;7284192;19;152690;-69
2022/03/25 03:11:13;;;;;;;;;;;;;;;21.15;42.33;102792.00;7280486;19;151924;-65
2022/03/25 03:13:40;;;;;;;;;;;;;;;21.16;42.66;102792.88;7277542;19;155780;-64
2022/03/25 03:16:06;;;;;;;;;;;;;;;21.21;42.50;102790.09;7275418;19;152924;-63
2022/03/25 03:18:33;;;;;;;;;;;;;;;21.11;40.07;102792.78;7278219;19;151948;-65
2022/03/25 03:21:00;;;;;;;;;;;;;;;21.06;40.00;102785.16;7279945;19;152512;-65
2022/03/25 03:23:27;;;;;;;;;;;;;;;21.06;40.59;102787.97;7279384;19;153734;-66
2022/03/25 03:25:54;;;;;;;;;;;;;;;21.02;41.48;102789.63;7275403;19;151825;-64
2022/03/25 03:28:20;;;;;;;;;;;;;;;21.04;41.13;102786.53;7277859;19;152953;-66
2022/03/25 03:30:47;;;;;;;;;;;;;;;21.02;41.25;102785.97;7285108;19;156307;-63
2022/03/25 03:33:14;;;;;;;;;;;;;;;20.97;41.66;102789.56;7279971;19;155556;-64
2022/03/25 03:35:42;;;;;;;;;;;;;;;20.99;41.29;102794.91;7275064;19;153742;-66
2022/03/25 03:38:08;;;;;;;;;;;;;;;20.97;41.47;102791.53;7278125;19;152285;-66
2022/03/25 03:40:38;;;;;;;;;;;;;;;20.98;41.60;102790.41;7277694;19;153456;-66
2022/03/25 03:43:05;;;;;;;;;;;;;;;20.99;41.37;102795.75;7276768;19;153940;-61
2022/03/25 03:45:32;;;;;;;;;;;;;;;20.98;41.33;102790.41;7278318;19;152712;-65
2022/03/25 03:47:58;;;;;;;;;;;;;;;20.96;41.77;102798.25;7279287;19;155684;-68
2022/03/25 03:50:25;;;;;;;;;;;;;;;21.02;41.46;102800.00;7275508;19;152341;-64
2022/03/25 03:52:52;;;;;;;;;;;;;;;20.99;41.36;102797.72;7285400;19;151737;-70
2022/03/25 03:55:19;;;;;;;;;;;;;;;20.97;41.90;102794.34;7274969;19;152641;-66
2022/03/25 03:57:46;;;;;;;;;;;;;;;20.97;41.91;102789.56;7280030;19;151755;-67
2022/03/25 04:00:13;;;;;;;;;;;;;;;20.91;41.55;102796.25;7278403;19;152414;-66
2022/03/25 04:02:41;;;;;;;;;;;;;;;20.87;41.76;102789.47;7278279;19;152506;-64
2022/03/25 04:05:08;;;;;;;;;;;;;;;20.86;41.67;102797.03;7277531;19;152064;-67
2022/03/25 04:07:44;;;;;;;;;;;;;;;20.94;42.18;102797.69;7276821;19;154183;-67
2022/03/25 04:10:12;;;;;;;;;;;;;;;20.91;42.24;102798.19;7276697;19;152681;-71
2022/03/25 04:12:39;;;;;;;;;;;;;;;20.88;42.08;102796.78;7277064;19;151750;-66
2022/03/25 04:15:09;;;;;;;;;;;;;;;20.86;42.49;102797.03;7285297;19;152133;-68
2022/03/25 04:17:41;;;;;;;;;;;;;;;20.88;42.75;102802.41;7277665;19;152444;-66
2022/03/25 04:20:08;;;;;;;;;;;;;;;20.88;42.86;102804.38;7281013;19;153443;-66
2022/03/25 04:22:35;;;;;;;;;;;;;;;20.89;42.77;102806.06;7284299;19;153126;-66
2022/03/25 04:25:03;;;;;;;;;;;;;;;20.86;43.09;102804.63;7284427;19;152163;-67
2022/03/25 04:27:29;;;;;;;;;;;;;;;20.84;43.06;102804.06;7282874;19;155857;-71
2022/03/25 04:29:56;;;;;;;;;;;;;;;20.85;42.92;102809.38;7281421;19;153759;-69
2022/03/25 04:32:23;;;;;;;;;;;;;;;20.91;43.29;102809.44;7282620;19;151820;-64
2022/03/25 04:34:50;;;;;;;;;;;;;;;20.95;43.03;102807.78;7285141;19;154136;-64
2022/03/25 04:37:16;;;;;;;;;;;;;;;20.95;43.12;102814.25;7288964;19;151879;-66
2022/03/25 04:39:43;;;;;;;;;;;;;;;20.96;43.25;102815.13;7284838;19;153722;-65
2022/03/25 04:42:10;;;;;;;;;;;;;;;20.96;43.23;102815.13;7283703;19;154421;-68
2022/03/25 04:44:37;;;;;;;;;;;;;;;20.95;43.19;102808.63;7282515;19;152217;-68
2022/03/25 04:47:03;;;;;;;;;;;;;;;20.94;42.90;102817.34;7281749;19;153034;-66
2022/03/25 04:49:30;;;;;;;;;;;;;;;20.95;42.72;102811.44;7282961;19;152797;-66
2022/03/25 04:51:57;;;;;;;;;;;;;;;20.87;43.21;102809.13;7284492;19;151664;-62
2022/03/25 04:54:24;;;;;;;;;;;;;;;20.84;43.02;102820.91;7282107;19;152583;-66
2022/03/25 04:56:50;;;;;;;;;;;;;;;20.80;43.36;102829.00;7289344;19;153951;-63
2022/03/25 04:59:17;;;;;;;;;;;;;;;20.78;43.39;102827.56;7284007;19;153818;-65
2022/03/25 05:01:44;;;;;;;;;;;;;;;20.77;43.42;102820.25;7281268;19;153982;-63
2022/03/25 05:04:11;;;;;;;;;;;;;;;20.77;43.21;102821.09;7284174;19;151865;-64
2022/03/25 05:06:37;;;;;;;;;;;;;;;20.75;43.44;102826.16;7282495;19;151880;-63
2022/03/25 05:09:06;;;;;;;;;;;;;;;20.74;43.34;102821.66;7280710;19;153553;-67
2022/03/25 05:11:33;;;;;;;;;;;;;;;20.73;43.25;102831.19;7283067;19;151805;-66
2022/03/25 05:14:00;;;;;;;;;;;;;;;20.71;43.48;102829.75;7283856;19;152573;-65
2022/03/25 05:16:26;;;;;;;;;;;;;;;20.70;43.59;102831.72;7282600;19;153283;-63
2022/03/25 05:18:54;;;;;;;;;;;;;;;20.70;43.57;102828.06;7291224;19;151734;-65
2022/03/25 05:21:21;;;;;;;;;;;;;;;20.69;43.38;102835.63;7279536;19;152785;-69
2022/03/25 05:23:48;;;;;;;;;;;;;;;20.69;43.49;102827.19;7283125;19;151635;-65
2022/03/25 05:26:20;;;;;;;;;;;;;;;20.68;43.53;102833.94;7281375;19;155512;-64
2022/03/25 05:28:48;;;;;;;;;;;;;;;20.68;43.39;102830.25;7280161;19;154629;-67
2022/03/25 05:31:15;;;;;;;;;;;;;;;20.65;43.28;102840.09;7280922;19;151733;-65
2022/03/25 05:33:42;;;;;;;;;;;;;;;20.64;43.52;102844.00;7283104;19;153421;-67
2022/03/25 05:36:09;;;;;;;;;;;;;;;20.64;43.60;102841.19;7281407;19;155309;-65
2022/03/25 05:38:38;;;;;;;;;;;;;;;20.64;43.06;102845.94;7281921;19;151945;-67
2022/03/25 05:41:05;;;;;;;;;;;;;;;20.63;43.03;102836.66;7288585;19;152976;-63
2022/03/25 05:43:32;;;;;;;;;;;;;;;20.62;43.38;102846.22;7279878;19;151865;-67
2022/03/25 05:45:58;;;;;;;;;;;;;;;20.62;43.18;102843.44;7281798;19;152678;-65
2022/03/25 05:48:25;;;;;;;;;;;;;;;20.62;43.21;102842.56;7278893;19;153223;-67
2022/03/25 05:50:52;;;;;;;;;;;;;;;20.60;43.43;102839.16;7282180;19;151886;-64
2022/03/25 05:53:19;;;;;;;;;;;;;;;20.59;43.10;102849.56;7279894;19;153423;-62
2022/03/25 05:55:45;;;;;;;;;;;;;;;20.63;43.10;102855.47;7281247;19;154969;-63
2022/03/25 05:58:13;;;;;;;;;;;;;;;20.66;43.47;102852.16;7281817;19;151773;-64
2022/03/25 06:00:40;;;;;;;;;;;;;;;20.69;43.49;102852.47;7282481;19;153343;-64
2022/03/25 06:03:07;;;;;;;;;;;;;;;20.68;43.14;102859.22;7289459;19;153628;-68
2022/03/25 06:05:35;;;;;;;;;;;;;;;20.71;43.23;102860.66;7281127;19;152747;-64
2022/03/25 06:08:01;;;;;;;;;;;;;;;20.71;43.31;102855.91;7279405;19;153223;-63
2022/03/25 06:10:28;;;;;;;;;;;;;;;20.70;43.00;102857.00;7280906;19;152377;-69
2022/03/25 06:12:55;;;;;;;;;;;;;;;20.71;43.40;102860.66;7280381;19;152541;-63
2022/03/25 06:15:22;;;;;;;;;;;;;;;20.68;43.06;102859.22;7277969;19;152442;-66
2022/03/25 06:17:50;;;;;;;;;;;;;;;20.71;43.26;102857.84;7282218;19;152373;-64
2022/03/25 06:20:18;;;;;;;;;;;;;;;20.65;43.30;102861.69;7279020;19;152651;-66
2022/03/25 06:22:45;;;;;;;;;;;;;;;20.62;43.27;102865.03;7280741;19;152338;-64
2022/03/25 06:25:12;;;;;;;;;;;;;;;20.60;43.17;102865.28;7288956;19;152579;-64
2022/03/25 06:27:53;;;;;;;;;;;;;;;20.61;42.87;102867.00;7276226;19;153449;-65
2022/03/25 06:30:20;;;;;;;;;;;;;;;20.57;43.32;102865.84;7281584;19;151714;-67
2022/03/25 06:32:47;;;;;;;;;;;;;;;20.54;43.29;102854.25;7278650;19;154124;-65
2022/03/25 06:35:15;;;;;;;;;;;;;;;20.53;43.46;102864.66;7278297;19;153811;-66
2022/03/25 06:37:42;;;;;;;;;;;;;;;20.53;43.36;102866.63;7281037;19;152152;-63
2022/03/25 06:40:09;;;;;;;;;;;;;;;20.53;43.39;102869.44;7281436;19;152650;-65
2022/03/25 06:42:37;;;;;;;;;;;;;;;20.51;43.38;102866.00;7279397;19;155538;-67
2022/03/25 06:45:05;;;;;;;;;;;;;;;20.50;43.59;102870.78;7288532;19;151702;-65
2022/03/25 06:47:32;;;;;;;;;;;;;;;20.47;43.19;102868.50;7274807;19;155114;-63
2022/03/25 06:49:59;;;;;;;;;;;;;;;20.46;43.47;102872.41;7280449;19;152122;-61
2022/03/25 06:52:26;;;;;;;;;;;;;;;20.47;43.39;102873.25;7279180;19;153570;-63
2022/03/25 06:54:52;;;;;;;;;;;;;;;20.47;43.22;102878.88;7280389;19;153312;-63
2022/03/25 06:57:19;;;;;;;;;;;;;;;20.45;43.41;102883.91;7281020;19;152151;-63
2022/03/25 06:59:46;;;;;;;;;;;;;;;20.47;43.78;102890.13;7280259;19;154794;-63
2022/03/25 07:02:15;;;;;;;;;;;;;;;20.51;43.60;102886.53;7276544;19;151939;-64
2022/03/25 07:04:42;;;;;;;;;;;;;;;20.46;43.52;102883.66;7278829;19;151869;-62
2022/03/25 07:07:11;;;;;;;;;;;;;;;20.46;43.51;102880.84;7281891;19;154709;-65
2022/03/25 07:09:38;;;;;;;;;;;;;;;20.52;43.73;102882.63;7280908;19;152131;-62
2022/03/25 07:12:05;;;;;;;;;;;;;;;20.50;43.68;102889.59;7276996;19;153369;-64
2022/03/25 07:14:32;;;;;;;;;;;;;;;20.53;43.76;102887.13;7275621;19;153203;-66
2022/03/25 07:16:58;;;;;;;;;;;;;;;20.51;43.49;102891.28;7280638;19;152243;-65
2022/03/25 07:19:25;;;;;;;;;;;;;;;20.53;43.52;102889.94;7278524;19;153223;-64
2022/03/25 07:21:52;;;;;;;;;;;;;;;20.57;43.40;102893.06;7277598;19;152448;-70
2022/03/25 07:24:20;;;;;;;;;;;;;;;20.54;42.26;102897.22;7277548;19;152253;-63
2022/03/25 07:26:47;;;;;;;;;;;;;;;20.50;41.68;102898.00;7276612;19;154466;-68
2022/03/25 07:29:14;;;;;;;;;;;;;;;20.51;42.67;102899.72;7284704;19;154720;-69
2022/03/25 07:31:41;;;;;;;;;;;;;;;20.52;42.88;102907.88;7278363;19;152537;-69
2022/03/25 07:34:11;;;;;;;;;;;;;;;20.54;43.15;102902.00;7278740;19;154921;-68
2022/03/25 07:36:37;;;;;;;;;;;;;;;20.57;42.84;102904.28;7278704;19;151841;-65
2022/03/25 07:39:05;;;;;;;;;;;;;;;20.59;42.75;102907.69;7278192;19;152683;-65
2022/03/25 07:41:32;;;;;;;;;;;;;;;20.64;43.09;102911.41;7277916;19;153737;-62
2022/03/25 07:44:00;;;;;;;;;;;;;;;20.51;40.31;102909.00;7278502;19;151940;-70
2022/03/25 07:46:28;;;;;;;;;;;;;;;20.59;40.43;102916.09;7278781;19;153926;-69
2022/03/25 07:48:55;;;;;;;;;;;;;;;20.64;40.24;102916.16;7279801;19;153273;-72
2022/03/25 07:51:21;;;;;;;;;;;;;;;20.72;39.88;102922.19;7286476;19;151899;-68
2022/03/25 07:53:49;;;;;;;;;;;;;;;20.75;40.23;102921.66;7279011;19;156307;-68
2022/03/25 07:56:22;;;;;;;;;;;;;;;20.81;39.92;102917.78;7279157;19;151825;-71
2022/03/25 07:58:49;;;;;;;;;;;;;;;20.89;39.93;102926.88;7280515;19;153192;-66
2022/03/25 08:01:16;;;;;;;;;;;;;;;20.95;39.83;102923.00;7277632;19;153835;-68
2022/03/25 08:03:43;;;;;;;;;;;;;;;21.03;39.75;102931.81;7280054;19;152047;-69
2022/03/25 08:06:15;;;;;;;;;;;;;;;21.10;39.38;102932.47;7277576;19;155124;-67
2022/03/25 08:08:47;;;;;;;;;;;;;;;21.17;39.24;102930.31;7276271;19;156670;-70
2022/03/25 08:11:14;;;;;;;;;;;;;;;21.24;39.75;102928.16;7276591;19;152296;-65
2022/03/25 08:13:41;;;;;;;;;;;;;;;21.31;39.13;102936.38;7282525;19;157041;-68
2022/03/25 08:16:08;;;;;;;;;;;;;;;21.38;39.20;102942.66;7279070;19;152183;-70
2022/03/25 08:18:35;;;;;;;;;;;;;;;21.45;38.90;102943.28;7278543;19;153851;-70
2022/03/25 08:21:01;;;;;;;;;;;;;;;21.53;38.72;102934.34;7277174;19;154425;-68
2022/03/25 08:29:01;;;;;;;;;;;;;;;21.83;38.89;102933.78;7278290;19;154513;-68
2022/03/25 08:31:47;;;;;;;;;;;;;;;21.87;38.84;102934.06;7278758;19;152083;-71
2022/03/25 08:34:15;;;;;;;;;;;;;;;21.89;38.58;102938.34;7275663;19;152169;-66
2022/03/25 08:36:43;;;;;;;;;;;;;;;21.95;38.47;102942.91;7285352;19;152230;-68
2022/03/25 08:39:10;;;;;;;;;;;;;;;21.97;38.26;102945.47;7277758;19;153231;-68
2022/03/25 08:41:37;;;;;;;;;;;;;;;22.02;38.19;102951.13;7277787;19;152992;-66
2022/03/25 08:44:04;;;;;;;;;;;;;;;22.04;38.18;102955.34;7277378;19;152073;-67
2022/03/25 08:46:32;;;;;;;;;;;;;;;22.07;37.74;102956.81;7278409;19;152716;-68
2022/03/25 08:48:59;;;;;;;;;;;;;;;22.09;38.13;102957.38;7275303;19;154802;-69
2022/03/25 08:51:25;;;;;;;;;;;;;;;22.11;37.54;102955.13;7276653;19;152221;-69
2022/03/25 08:53:53;;;;;;;;;;;;;;;22.13;37.62;102958.50;7276615;19;153157;-69
2022/03/25 08:56:24;;;;;;;;;;;;;;;22.14;37.41;102957.41;7281796;19;152238;-71
2022/03/25 08:58:54;;;;;;;;;;;;;;;22.16;37.22;102960.81;7277240;19;155045;-67
2022/03/25 09:01:21;;;;;;;;;;;;;;;22.16;37.40;102964.47;7274230;19;155449;-72
2022/03/25 09:03:48;;;;;;;;;;;;;;;22.16;37.28;102964.47;7277580;19;151880;-68
2022/03/25 09:06:21;;;;;;;;;;;;;;;22.18;37.24;102965.03;7276800;19;151765;-69
2022/03/25 09:08:49;;;;;;;;;;;;;;;22.20;37.34;102961.13;7274281;19;153987;-71
2022/03/25 09:11:16;;;;;;;;;;;;;;;22.20;37.02;102963.94;7283163;19;152219;-67
2022/03/25 09:13:43;;;;;;;;;;;;;;;22.22;37.01;102964.50;7284500;19;153908;-71
2022/03/25 09:16:13;;;;;;;;;;;;;;;22.20;37.25;102969.56;7282309;19;154100;-71
2022/03/25 09:18:46;;;;;;;;;;;;;;;22.20;36.80;102967.59;7291319;19;152040;-67
2022/03/25 09:21:13;;;;;;;;;;;;;;;22.21;36.89;102966.47;7281612;19;152165;-68
2022/03/25 09:23:40;;;;;;;;;;;;;;;22.21;36.68;102972.13;7280979;19;152416;-69
2022/03/25 09:26:06;;;;;;;;;;;;;;;22.19;36.73;102977.16;7283485;19;152969;-66
2022/03/25 09:28:33;;;;;;;;;;;;;;;22.22;36.61;102975.75;7278062;19;153972;-67
2022/03/25 09:31:00;;;;;;;;;;;;;;;22.21;36.78;102976.91;7284023;19;152835;-64
2022/03/25 09:33:27;;;;;;;;;;;;;;;22.20;37.02;102975.19;7283909;19;153643;-68
2022/03/25 09:35:54;;;;;;;;;;;;;;;22.21;37.08;102976.91;7282063;19;154211;-67
2022/03/25 09:38:20;;;;;;;;;;;;;;;22.19;36.63;102977.16;7280422;19;152282;-68
2022/03/25 09:40:47;;;;;;;;;;;;;;;22.18;37.04;102975.44;7287776;19;152726;-66
2022/03/25 09:43:14;;;;;;;;;;;;;;;22.18;36.84;102975.44;7283772;19;152134;-67
2022/03/25 09:45:41;;;;;;;;;;;;;;;22.19;36.51;102977.16;7281324;19;152688;-68
2022/03/25 09:48:08;;;;;;;;;;;;;;;22.18;36.97;102981.94;7279916;19;153930;-65
2022/03/25 09:50:37;;;;;;;;;;;;;;;22.17;36.82;102980.22;7282324;19;151566;-69
2022/03/25 09:53:04;;;;;;;;;;;;;;;22.17;36.54;102973.75;7283356;19;153069;-68
2022/03/25 09:55:44;;;;;;;;;;;;;;;22.17;36.71;102976.56;7280552;19;153444;-66
2022/03/25 09:58:12;;;;;;;;;;;;;;;22.16;36.72;102974.88;7281015;19;151958;-69
2022/03/25 10:00:39;;;;;;;;;;;;;;;22.14;36.84;102983.59;7279949;19;153821;-66
2022/03/25 10:03:10;;;;;;;;;;;;;;;22.15;36.96;102976.84;7289161;19;152616;-65
2022/03/25 10:05:53;;;;;;;;;;;;;;;22.15;36.76;102976.00;7282740;19;155244;-69
2022/03/25 10:08:32;;;;;;;;;;;;;;;22.15;36.81;102981.63;7277806;19;152750;-65
2022/03/25 10:11:17;;;;;;;;;;;;;;;22.13;36.60;102981.88;7281015;19;152410;-70
2022/03/25 10:13:44;;;;;;;;;;;;;;;22.12;36.70;102976.56;7278455;19;152978;-69
2022/03/25 10:16:27;;;;;;;;;;;;;;;22.12;36.56;102977.38;7279110;19;153813;-67
2022/03/25 10:18:56;;;;;;;;;;;;;;;22.12;36.63;102976.56;7281196;19;151995;-69
2022/03/25 10:21:23;;;;;;;;;;;;;;;22.11;37.05;102975.69;7280013;19;153392;-71
2022/03/25 10:23:50;;;;;;;;;;;;;;;22.09;36.81;102971.44;7278585;19;153908;-69
2022/03/25 10:26:19;;;;;;;;;;;;;;;22.10;36.75;102973.13;7256292;19;153407;-67
2022/03/25 10:28:51;;;;;;;;;;;;;;;22.09;36.52;102974.25;7276589;19;155718;-66
2022/03/25 10:31:18;;;;;;;;;;;;;;;22.07;36.63;102974.53;7279095;19;151911;-71
2022/03/25 10:33:44;;;;;;;;;;;;;;;22.08;36.86;102975.38;7280579;19;153346;-67
2022/03/25 10:36:25;;;;;;;;;;;;;;;22.08;36.68;102972.56;7276762;19;152108;-69
2022/03/25 10:38:54;;;;;;;;;;;;;;;22.07;36.61;102973.69;7280819;19;152450;-69
2022/03/25 10:41:22;;;;;;;;;;;;;;;22.06;37.10;102975.66;7279730;19;153425;-67
2022/03/25 10:43:52;;;;;;;;;;;;;;;22.07;36.87;102973.69;7277321;19;154757;-65
2022/03/25 10:46:39;;;;;;;;;;;;;;;22.07;36.78;102974.53;7279640;19;151769;-70
2022/03/25 10:49:07;;;;;;;;;;;;;;;22.06;37.03;102974.81;7283543;19;153842;-66
2022/03/25 10:51:35;;;;;;;;;;;;;;;22.06;36.63;102967.22;7279872;19;152549;-67
2022/03/25 10:54:09;;;;;;;;;;;;;;;22.06;36.88;102970.03;7280388;19;153302;-65
2022/03/25 10:56:47;;;;;;;;;;;;;;;22.06;37.08;102972.00;7277597;19;153746;-69
2022/03/25 10:59:24;;;;;;;;;;;;;;;22.05;37.06;102970.28;7277212;19;152290;-71
2022/03/25 11:01:53;;;;;;;;;;;;;;;22.05;36.88;102971.13;7277046;19;152969;-67
2022/03/25 11:04:21;;;;;;;;;;;;;;;22.06;36.68;102972.00;7278559;19;153494;-65
2022/03/25 11:06:48;;;;;;;;;;;;;;;22.05;36.98;102975.91;7279625;19;152005;-68
2022/03/25 11:09:16;;;;;;;;;;;;;;;22.04;36.76;102963.81;7283798;19;152173;-68
2022/03/25 11:11:44;;;;;;;;;;;;;;;22.05;37.18;102970.28;7276709;19;152036;-67
2022/03/25 11:14:11;;;;;;;;;;;;;;;22.05;36.65;102970.28;7279914;19;152892;-71
2022/03/25 11:16:45;;;;;;;;;;;;;;;22.04;36.83;102969.44;7278677;19;154747;-67
2022/03/25 11:19:12;;;;;;;;;;;;;;;22.05;37.09;102965.50;7279609;19;152341;-68
2022/03/25 11:21:43;;;;;;;;;;;;;;;22.06;37.05;102969.19;7279563;19;152344;-71
2022/03/25 11:24:16;;;;;;;;;;;;;;;22.05;36.91;102964.66;7277187;19;153980;-71
2022/03/25 11:26:44;;;;;;;;;;;;;;;22.06;36.69;102955.09;7273952;19;152494;-67
2022/03/25 11:29:14;;;;;;;;;;;;;;;22.05;36.90;102959.03;7273105;19;154052;-65
2022/03/25 11:32:01;;;;;;;;;;;;;;;22.06;36.90;102960.72;7283189;19;153013;-68
2022/03/25 11:34:28;;;;;;;;;;;;;;;22.06;36.74;102958.75;7278287;19;153043;-69
2022/03/25 11:37:14;;;;;;;;;;;;;;;22.06;37.09;102953.13;7278316;19;153792;-67
2022/03/25 11:39:41;;;;;;;;;;;;;;;22.03;36.96;102959.28;7278507;19;151812;-69
2022/03/25 11:42:27;;;;;;;;;;;;;;;22.05;36.68;102953.41;7278950;19;152908;-68
2022/03/25 11:45:12;;;;;;;;;;;;;;;22.04;36.92;102949.72;7277997;19;153586;-67
2022/03/25 11:47:39;;;;;;;;;;;;;;;22.05;36.68;102954.25;7278796;19;151795;-65
2022/03/25 11:50:24;;;;;;;;;;;;;;;22.07;36.70;102956.81;7276823;19;152637;-66
2022/03/25 11:52:51;;;;;;;;;;;;;;;22.07;36.65;102945.53;7267277;19;153872;-66
2022/03/25 11:55:17;;;;;;;;;;;;;;;22.07;36.85;102943.56;7286030;19;152892;-70
2022/03/25 11:57:44;;;;;;;;;;;;;;;22.09;36.87;102944.13;7276014;19;153169;-69
2022/03/25 12:00:25;;;;;;;;;;;;;;;22.08;36.64;102950.03;7278750;19;152169;-71
2022/03/25 12:03:00;;;;;;;;;;;;;;;22.08;36.72;102945.25;7278233;19;153728;-69
2022/03/25 12:05:28;;;;;;;;;;;;;;;22.11;36.78;102941.91;7275297;19;152210;-73
2022/03/25 12:08:14;;;;;;;;;;;;;;;22.12;36.98;102934.31;7277338;19;151798;-71
2022/03/25 12:10:44;;;;;;;;;;;;;;;22.13;37.09;102933.19;7277698;19;153213;-68
2022/03/25 12:13:11;;;;;;;;;;;;;;;22.12;36.79;102937.13;7274230;19;153440;-67
2022/03/25 12:15:45;;;;;;;;;;;;;;;22.12;36.85;102931.50;7276149;19;152738;-67
2022/03/25 12:18:31;;;;;;;;;;;;;;;22.10;37.09;102922.47;7284160;19;153519;-71
2022/03/25 12:20:58;;;;;;;;;;;;;;;22.09;37.20;102926.41;7275182;19;153123;-67
2022/03/25 12:23:24;;;;;;;;;;;;;;;22.09;37.18;102926.41;7275746;19;152217;-65
2022/03/25 12:25:52;;;;;;;;;;;;;;;22.09;37.33;102920.75;7274689;19;153302;-67
2022/03/25 12:28:23;;;;;;;;;;;;;;;22.06;37.04;102927.78;7272007;19;152102;-67
2022/03/25 12:30:54;;;;;;;;;;;;;;;22.05;37.09;102925.25;7271841;19;152985;-67
2022/03/25 12:33:21;;;;;;;;;;;;;;;22.05;37.33;102933.69;7276888;19;153381;-67
2022/03/25 12:35:49;;;;;;;;;;;;;;;22.01;36.92;102933.38;7276523;19;154339;-68
2022/03/25 12:38:21;;;;;;;;;;;;;;;22.01;37.14;102926.91;7278391;19;153518;-70
2022/03/25 12:40:49;;;;;;;;;;;;;;;22.02;37.26;102925.78;7283565;19;154405;-66